Amsterdam, MT

3:02 PM MDT on August 30, 2016 (GMT -0600)
B-3 Farms Station (Amsterdam, MT) | | Change Station
Active Advisory: Air Quality Alert

Elev 4567 ft 45.75 °N, 111.33 °W | Updated 6 seconds ago

Smoke
Smoke
81.9 °F
Feels Like 80 °F
N
2.5
Wind Variable Wind from WNW
Gusts 2.5 mph

Today
High -- | Low -- °F
--% Chance of Precip.
Yesterday
High -- | Low -- °F
Precip. -- in
Pressure 29.96 in
Visibility 8.0 miles
Clouds Clear
Heat Index 80 °F
Dew Point 46 °F
Humidity 28%
Rainfall 0.00 in
Snow Depth Not available.
6:44 AM 8:06 PM
Waning Crescent, 2% visible
METAR KBZN 302056Z AUTO 34005KT 8SM FU CLR 32/02 A3010 RMK AO2 SLP145 T03220022 56026
Pressure 29.96 in
Visibility 8.0 miles
Clouds Clear
Heat Index 80 °F
Dew Point 46 °F
Humidity 28%
Rainfall 0.00 in
Snow Depth Not available.
6:44 AM 8:06 PM
Waning Crescent, 2% visible
METAR KBZN 302056Z AUTO 34005KT 8SM FU CLR 32/02 A3010 RMK AO2 SLP145 T03220022 56026

10-Day Weather Forecast

Almanac

Astronomy

Aug. 30, 2016 Rise Set
Actual Time
Civil Twilight
Nautical Twilight
Astronomical Twilight
Moon
Length of Visible Light
Length of Day
Tomorrow will be .
, % of the Moon is Illuminated

Today's Extremes

State Highs State Lows

Community

WunderPhotos

Upload Photos

1,935,894 photos uploaded!

WunderBlog® & News

Nearby

Air Quality

  Air Quality AQ Index Pollutant
Not available.

Snow Depth

Station Depth Elevation

Earthquake Activity

City Distance Mag. Time & Date
Minimum magnitude displayed is 2.5.

Coastal Water Temperatures

Place Temperature

Stations

Nearby Weather Stations

Station Location Temp. Windchill Dew Point Humidity Wind Precip. Elev Updated Type
                   

Watches & Warnings

Air Quality Alert
Issued: 9:15 AM MDT Aug. 30, 2016 – National Weather Service

The Montana department of environmental quality has issued an air
quality alert for Gallatin County in effect until further notice due
to nearby wildfire activity. Significant air quality impacts are
expected in the southern portion of Gallatin County near Yellowstone
National Park and the community of Thompson Falls in Sanders County.
This alert will be updated again at 900am on August 31... 2016.

An air quality alert means that particulates have been trending
upwards and that an exceedence of the 24 hour National ambient air
quality Standard (naaqs) has occurred or may occur in the near
future.

Particulate levels in West Yellowstone are unhealthy.

When air quality is unhealthy... state and local health officials
recommend that people with respiratory or heart disease... the elderly...
and children should avoid prolonged exertion... everyone else should
limit prolonged exertion.

For more information... visit the Montana department of environmental
quality at www.Todaysair.Mt.Gov.